sensor_id;sensor_type;location;lat;lon;timestamp;temperature;humidity
11025;DHT22;22890;51.820;8.682;2024-02-21T00:55:04;8.60;99.90
11025;DHT22;22890;51.820;8.682;2024-02-21T01:22:04;8.70;99.90
11025;DHT22;22890;51.820;8.682;2024-02-21T02:11:13;9.40;99.90
11025;DHT22;22890;51.820;8.682;2024-02-21T02:21:05;8.90;99.90
11025;DHT22;22890;51.820;8.682;2024-02-21T03:02:51;8.80;99.90
11025;DHT22;22890;51.820;8.682;2024-02-21T03:05:21;8.80;99.90
11025;DHT22;22890;51.820;8.682;2024-02-21T03:15:13;8.80;99.90
11025;DHT22;22890;51.820;8.682;2024-02-21T03:57:02;8.80;99.90
11025;DHT22;22890;51.820;8.682;2024-02-21T04:26:34;8.90;99.90
11025;DHT22;22890;51.820;8.682;2024-02-21T05:35:28;8.80;99.90
11025;DHT22;22890;51.820;8.682;2024-02-21T06:00:06;8.60;99.90
11025;DHT22;22890;51.820;8.682;2024-02-21T06:07:34;8.60;99.90
11025;DHT22;22890;51.820;8.682;2024-02-21T06:10:02;8.60;99.90
11025;DHT22;22890;51.820;8.682;2024-02-21T07:01:48;8.70;99.90
11025;DHT22;22890;51.820;8.682;2024-02-21T08:08:12;9.00;99.90
11025;DHT22;22890;51.820;8.682;2024-02-21T08:27:58;9.20;99.90
11025;DHT22;22890;51.820;8.682;2024-02-21T09:05:11;9.30;99.90
11025;DHT22;22890;51.820;8.682;2024-02-21T09:42:06;9.60;99.90
11025;DHT22;22890;51.820;8.682;2024-02-21T09:44:37;9.70;99.90
11025;DHT22;22890;51.820;8.682;2024-02-21T09:47:28;9.70;99.90
11025;DHT22;22890;51.820;8.682;2024-02-21T09:54:53;9.80;99.90
11025;DHT22;22890;51.820;8.682;2024-02-21T10:07:12;9.90;99.90
11025;DHT22;22890;51.820;8.682;2024-02-21T10:12:08;10.10;99.90
11025;DHT22;22890;51.820;8.682;2024-02-21T10:22:05;10.10;99.90
11025;DHT22;22890;51.820;8.682;2024-02-21T10:27:04;10.20;99.90
11025;DHT22;22890;51.820;8.682;2024-02-21T10:41:31;10.20;99.90
11025;DHT22;22890;51.820;8.682;2024-02-21T10:44:02;10.20;99.90
11025;DHT22;22890;51.820;8.682;2024-02-21T10:46:32;10.20;99.90
11025;DHT22;22890;51.820;8.682;2024-02-21T10:49:07;10.30;99.90
11025;DHT22;22890;51.820;8.682;2024-02-21T10:51:40;10.20;99.90
11025;DHT22;22890;51.820;8.682;2024-02-21T10:56:51;10.30;99.90
11025;DHT22;22890;51.820;8.682;2024-02-21T10:59:18;10.30;99.90
11025;DHT22;22890;51.820;8.682;2024-02-21T11:01:46;10.30;99.90
11025;DHT22;22890;51.820;8.682;2024-02-21T11:04:13;10.30;99.90
11025;DHT22;22890;51.820;8.682;2024-02-21T11:06:41;10.30;99.90
11025;DHT22;22890;51.820;8.682;2024-02-21T11:09:10;10.30;99.90
11025;DHT22;22890;51.820;8.682;2024-02-21T11:11:42;10.30;99.90
11025;DHT22;22890;51.820;8.682;2024-02-21T11:14:20;10.30;99.90
11025;DHT22;22890;51.820;8.682;2024-02-21T11:16:47;10.30;99.90
11025;DHT22;22890;51.820;8.682;2024-02-21T11:19:25;10.40;99.90
11025;DHT22;22890;51.820;8.682;2024-02-21T11:21:55;10.40;99.90
11025;DHT22;22890;51.820;8.682;2024-02-21T11:24:32;10.40;99.90
11025;DHT22;22890;51.820;8.682;2024-02-21T11:27:13;10.40;99.90
11025;DHT22;22890;51.820;8.682;2024-02-21T11:29:48;10.40;99.90
11025;DHT22;22890;51.820;8.682;2024-02-21T11:32:18;10.40;99.90
11025;DHT22;22890;51.820;8.682;2024-02-21T11:37:25;10.40;99.90
11025;DHT22;22890;51.820;8.682;2024-02-21T11:39:54;10.40;99.90
11025;DHT22;22890;51.820;8.682;2024-02-21T11:42:21;10.40;99.90
11025;DHT22;22890;51.820;8.682;2024-02-21T11:44:48;10.30;99.90
11025;DHT22;22890;51.820;8.682;2024-02-21T11:47:15;10.30;99.90
11025;DHT22;22890;51.820;8.682;2024-02-21T11:49:45;10.30;99.90
11025;DHT22;22890;51.820;8.682;2024-02-21T11:52:13;10.30;99.90
11025;DHT22;22890;51.820;8.682;2024-02-21T11:54:42;10.40;99.90
11025;DHT22;22890;51.820;8.682;2024-02-21T11:57:09;10.40;99.90
11025;DHT22;22890;51.820;8.682;2024-02-21T11:59:36;10.40;99.90
11025;DHT22;22890;51.820;8.682;2024-02-21T12:02:03;10.40;99.90
11025;DHT22;22890;51.820;8.682;2024-02-21T12:04:30;10.40;99.90
11025;DHT22;22890;51.820;8.682;2024-02-21T12:06:58;10.30;99.90
11025;DHT22;22890;51.820;8.682;2024-02-21T12:09:25;10.40;99.90
11025;DHT22;22890;51.820;8.682;2024-02-21T12:12:05;10.40;99.90
11025;DHT22;22890;51.820;8.682;2024-02-21T12:14:35;10.40;99.90
11025;DHT22;22890;51.820;8.682;2024-02-21T12:17:03;10.40;99.90
11025;DHT22;22890;51.820;8.682;2024-02-21T12:19:33;10.40;99.90
11025;DHT22;22890;51.820;8.682;2024-02-21T12:22:01;10.30;99.90
11025;DHT22;22890;51.820;8.682;2024-02-21T12:24:28;10.30;99.90
11025;DHT22;22890;51.820;8.682;2024-02-21T12:26:56;10.20;99.90
11025;DHT22;22890;51.820;8.682;2024-02-21T12:29:24;10.20;99.90
11025;DHT22;22890;51.820;8.682;2024-02-21T12:31:55;10.20;99.90
11025;DHT22;22890;51.820;8.682;2024-02-21T12:34:23;10.20;99.90
11025;DHT22;22890;51.820;8.682;2024-02-21T12:37:04;10.20;99.90
11025;DHT22;22890;51.820;8.682;2024-02-21T12:39:31;10.20;99.90
11025;DHT22;22890;51.820;8.682;2024-02-21T12:41:59;10.20;99.90
11025;DHT22;22890;51.820;8.682;2024-02-21T12:44:26;10.30;99.90
11025;DHT22;22890;51.820;8.682;2024-02-21T12:46:53;10.30;99.90
11025;DHT22;22890;51.820;8.682;2024-02-21T12:49:22;10.40;99.90
11025;DHT22;22890;51.820;8.682;2024-02-21T12:51:49;10.50;99.90
11025;DHT22;22890;51.820;8.682;2024-02-21T12:54:15;10.40;99.90
11025;DHT22;22890;51.820;8.682;2024-02-21T12:56:42;10.40;99.90
11025;DHT22;22890;51.820;8.682;2024-02-21T12:59:09;10.30;99.90
11025;DHT22;22890;51.820;8.682;2024-02-21T13:01:36;10.30;99.90
11025;DHT22;22890;51.820;8.682;2024-02-21T13:04:05;10.40;99.90
11025;DHT22;22890;51.820;8.682;2024-02-21T13:06:32;10.30;99.90
11025;DHT22;22890;51.820;8.682;2024-02-21T13:09:00;10.30;99.90
11025;DHT22;22890;51.820;8.682;2024-02-21T13:11:30;10.30;99.90
11025;DHT22;22890;51.820;8.682;2024-02-21T13:13:58;10.20;99.90
11025;DHT22;22890;51.820;8.682;2024-02-21T13:16:25;10.30;99.90
11025;DHT22;22890;51.820;8.682;2024-02-21T13:18:56;10.30;99.90
11025;DHT22;22890;51.820;8.682;2024-02-21T13:21:22;10.30;99.90
11025;DHT22;22890;51.820;8.682;2024-02-21T13:23:49;10.30;99.90
11025;DHT22;22890;51.820;8.682;2024-02-21T13:26:16;10.40;99.90
11025;DHT22;22890;51.820;8.682;2024-02-21T13:28:43;10.40;99.90
11025;DHT22;22890;51.820;8.682;2024-02-21T13:31:11;10.50;99.90
11025;DHT22;22890;51.820;8.682;2024-02-21T13:33:38;10.50;99.90
11025;DHT22;22890;51.820;8.682;2024-02-21T13:36:05;10.60;99.90
11025;DHT22;22890;51.820;8.682;2024-02-21T13:38:32;10.60;99.90
11025;DHT22;22890;51.820;8.682;2024-02-21T13:40:59;10.60;99.90
11025;DHT22;22890;51.820;8.682;2024-02-21T13:43:27;10.60;99.90
11025;DHT22;22890;51.820;8.682;2024-02-21T13:45:58;10.70;99.90
11025;DHT22;22890;51.820;8.682;2024-02-21T13:48:25;10.60;99.90
11025;DHT22;22890;51.820;8.682;2024-02-21T13:50:53;10.70;99.90
11025;DHT22;22890;51.820;8.682;2024-02-21T13:53:20;10.70;99.90
11025;DHT22;22890;51.820;8.682;2024-02-21T13:55:49;10.70;99.90
11025;DHT22;22890;51.820;8.682;2024-02-21T13:58:16;10.70;99.90
11025;DHT22;22890;51.820;8.682;2024-02-21T14:00:44;10.80;99.90
11025;DHT22;22890;51.820;8.682;2024-02-21T14:03:11;10.90;99.90
11025;DHT22;22890;51.820;8.682;2024-02-21T14:05:38;10.90;99.90
11025;DHT22;22890;51.820;8.682;2024-02-21T14:08:09;11.00;99.90
11025;DHT22;22890;51.820;8.682;2024-02-21T14:10:36;11.00;99.90
11025;DHT22;22890;51.820;8.682;2024-02-21T14:13:04;11.00;99.90
11025;DHT22;22890;51.820;8.682;2024-02-21T14:15:30;11.00;99.90
11025;DHT22;22890;51.820;8.682;2024-02-21T14:17:57;11.00;99.90
11025;DHT22;22890;51.820;8.682;2024-02-21T14:20:25;11.00;99.90
11025;DHT22;22890;51.820;8.682;2024-02-21T14:22:52;11.00;99.90
11025;DHT22;22890;51.820;8.682;2024-02-21T14:25:19;11.00;99.90
11025;DHT22;22890;51.820;8.682;2024-02-21T14:27:46;11.10;99.90
11025;DHT22;22890;51.820;8.682;2024-02-21T14:30:12;11.00;99.90
11025;DHT22;22890;51.820;8.682;2024-02-21T14:32:43;11.10;99.90
11025;DHT22;22890;51.820;8.682;2024-02-21T14:35:10;11.10;99.90
11025;DHT22;22890;51.820;8.682;2024-02-21T14:37:37;11.20;99.90
11025;DHT22;22890;51.820;8.682;2024-02-21T14:40:05;11.20;99.90
11025;DHT22;22890;51.820;8.682;2024-02-21T14:42:32;11.30;99.90
11025;DHT22;22890;51.820;8.682;2024-02-21T14:45:00;11.30;99.90
11025;DHT22;22890;51.820;8.682;2024-02-21T14:47:32;11.40;99.90
11025;DHT22;22890;51.820;8.682;2024-02-21T14:49:59;11.40;99.90
11025;DHT22;22890;51.820;8.682;2024-02-21T14:52:26;11.50;99.90
11025;DHT22;22890;51.820;8.682;2024-02-21T14:54:56;11.40;99.90
11025;DHT22;22890;51.820;8.682;2024-02-21T14:57:23;11.40;99.90
11025;DHT22;22890;51.820;8.682;2024-02-21T14:59:51;11.40;99.90
11025;DHT22;22890;51.820;8.682;2024-02-21T15:02:23;11.50;99.90
11025;DHT22;22890;51.820;8.682;2024-02-21T15:04:50;11.40;99.90
11025;DHT22;22890;51.820;8.682;2024-02-21T15:07:19;11.40;99.90
11025;DHT22;22890;51.820;8.682;2024-02-21T15:09:46;11.40;99.90
11025;DHT22;22890;51.820;8.682;2024-02-21T15:12:13;11.30;99.90
11025;DHT22;22890;51.820;8.682;2024-02-21T15:14:40;11.20;99.90
11025;DHT22;22890;51.820;8.682;2024-02-21T15:17:06;11.20;99.90
11025;DHT22;22890;51.820;8.682;2024-02-21T15:19:33;11.20;99.90
11025;DHT22;22890;51.820;8.682;2024-02-21T15:22:05;11.10;99.90
11025;DHT22;22890;51.820;8.682;2024-02-21T15:24:32;11.10;99.90
11025;DHT22;22890;51.820;8.682;2024-02-21T15:26:58;11.10;99.90
11025;DHT22;22890;51.820;8.682;2024-02-21T15:29:25;11.10;99.90
11025;DHT22;22890;51.820;8.682;2024-02-21T15:31:52;11.10;99.90
11025;DHT22;22890;51.820;8.682;2024-02-21T15:34:19;11.00;99.90
11025;DHT22;22890;51.820;8.682;2024-02-21T15:36:46;11.00;99.90
11025;DHT22;22890;51.820;8.682;2024-02-21T15:39:13;11.00;99.90
11025;DHT22;22890;51.820;8.682;2024-02-21T15:41:40;11.00;99.90
11025;DHT22;22890;51.820;8.682;2024-02-21T15:44:06;11.00;99.90
11025;DHT22;22890;51.820;8.682;2024-02-21T15:46:33;10.90;99.90
11025;DHT22;22890;51.820;8.682;2024-02-21T15:49:03;10.90;99.90
11025;DHT22;22890;51.820;8.682;2024-02-21T15:51:30;10.90;99.90
11025;DHT22;22890;51.820;8.682;2024-02-21T15:53:58;10.80;99.90
11025;DHT22;22890;51.820;8.682;2024-02-21T15:56:25;10.70;99.90
11025;DHT22;22890;51.820;8.682;2024-02-21T15:58:53;10.70;99.90
11025;DHT22;22890;51.820;8.682;2024-02-21T16:01:21;10.60;99.90
11025;DHT22;22890;51.820;8.682;2024-02-21T16:03:50;10.60;99.90
11025;DHT22;22890;51.820;8.682;2024-02-21T16:06:17;10.60;99.90
11025;DHT22;22890;51.820;8.682;2024-02-21T16:08:44;10.50;99.90
11025;DHT22;22890;51.820;8.682;2024-02-21T16:11:13;10.50;99.90
11025;DHT22;22890;51.820;8.682;2024-02-21T16:13:44;10.50;99.90
11025;DHT22;22890;51.820;8.682;2024-02-21T16:16:13;10.40;99.90
11025;DHT22;22890;51.820;8.682;2024-02-21T16:18:40;10.50;99.90
11025;DHT22;22890;51.820;8.682;2024-02-21T16:21:06;10.40;99.90
11025;DHT22;22890;51.820;8.682;2024-02-21T16:23:34;10.40;99.90
11025;DHT22;22890;51.820;8.682;2024-02-21T16:26:01;10.40;99.90
11025;DHT22;22890;51.820;8.682;2024-02-21T16:28:28;10.40;99.90
11025;DHT22;22890;51.820;8.682;2024-02-21T16:30:55;10.40;99.90
11025;DHT22;22890;51.820;8.682;2024-02-21T16:33:23;10.50;99.90
11025;DHT22;22890;51.820;8.682;2024-02-21T16:35:51;10.50;99.90
11025;DHT22;22890;51.820;8.682;2024-02-21T16:38:18;10.40;99.90
11025;DHT22;22890;51.820;8.682;2024-02-21T16:40:45;10.50;99.90
11025;DHT22;22890;51.820;8.682;2024-02-21T16:43:12;10.40;99.90
11025;DHT22;22890;51.820;8.682;2024-02-21T16:45:39;10.70;99.90
11025;DHT22;22890;51.820;8.682;2024-02-21T16:48:05;10.40;99.90
11025;DHT22;22890;51.820;8.682;2024-02-21T16:50:32;10.40;99.90
11025;DHT22;22890;51.820;8.682;2024-02-21T16:53:14;10.50;99.90
11025;DHT22;22890;51.820;8.682;2024-02-21T16:55:41;10.50;99.90
11025;DHT22;22890;51.820;8.682;2024-02-21T16:58:08;10.50;99.90
11025;DHT22;22890;51.820;8.682;2024-02-21T17:00:35;10.50;99.90
11025;DHT22;22890;51.820;8.682;2024-02-21T17:03:06;10.50;99.90
11025;DHT22;22890;51.820;8.682;2024-02-21T17:05:33;10.50;99.90
11025;DHT22;22890;51.820;8.682;2024-02-21T17:08:04;10.40;99.90
11025;DHT22;22890;51.820;8.682;2024-02-21T17:10:34;10.40;99.90
11025;DHT22;22890;51.820;8.682;2024-02-21T17:13:02;10.40;99.90
11025;DHT22;22890;51.820;8.682;2024-02-21T17:15:31;10.40;99.90
11025;DHT22;22890;51.820;8.682;2024-02-21T17:17:58;10.30;99.90
11025;DHT22;22890;51.820;8.682;2024-02-21T17:20:25;10.30;99.90
11025;DHT22;22890;51.820;8.682;2024-02-21T17:22:52;10.30;99.90
11025;DHT22;22890;51.820;8.682;2024-02-21T17:25:19;10.20;99.90
11025;DHT22;22890;51.820;8.682;2024-02-21T17:27:46;9.10;99.90
11025;DHT22;22890;51.820;8.682;2024-02-21T17:30:13;10.20;99.90
11025;DHT22;22890;51.820;8.682;2024-02-21T17:32:40;10.30;99.90
11025;DHT22;22890;51.820;8.682;2024-02-21T17:35:08;10.30;99.90
11025;DHT22;22890;51.820;8.682;2024-02-21T17:37:35;10.30;99.90
11025;DHT22;22890;51.820;8.682;2024-02-21T17:40:02;10.30;99.90
11025;DHT22;22890;51.820;8.682;2024-02-21T17:42:31;8.90;99.90
11025;DHT22;22890;51.820;8.682;2024-02-21T17:44:58;10.30;99.90
11025;DHT22;22890;51.820;8.682;2024-02-21T17:47:25;10.20;99.90
11025;DHT22;22890;51.820;8.682;2024-02-21T17:49:52;10.20;99.90
11025;DHT22;22890;51.820;8.682;2024-02-21T17:52:18;10.20;99.90
11025;DHT22;22890;51.820;8.682;2024-02-21T17:54:47;10.20;99.90
11025;DHT22;22890;51.820;8.682;2024-02-21T17:57:14;10.20;99.90
11025;DHT22;22890;51.820;8.682;2024-02-21T17:59:42;10.20;99.90
11025;DHT22;22890;51.820;8.682;2024-02-21T18:02:09;10.20;99.90
11025;DHT22;22890;51.820;8.682;2024-02-21T18:04:36;10.10;99.90
11025;DHT22;22890;51.820;8.682;2024-02-21T18:07:03;10.10;99.90
11025;DHT22;22890;51.820;8.682;2024-02-21T18:09:31;10.10;99.90
11025;DHT22;22890;51.820;8.682;2024-02-21T18:11:58;10.10;99.90
11025;DHT22;22890;51.820;8.682;2024-02-21T18:14:25;10.10;99.90
11025;DHT22;22890;51.820;8.682;2024-02-21T18:16:52;10.10;99.90
11025;DHT22;22890;51.820;8.682;2024-02-21T18:19:18;10.10;99.90
11025;DHT22;22890;51.820;8.682;2024-02-21T18:21:46;10.10;99.90
11025;DHT22;22890;51.820;8.682;2024-02-21T18:24:14;10.10;99.90
11025;DHT22;22890;51.820;8.682;2024-02-21T18:26:41;10.10;99.90
11025;DHT22;22890;51.820;8.682;2024-02-21T18:29:08;10.10;99.90
11025;DHT22;22890;51.820;8.682;2024-02-21T18:31:39;10.10;99.90
11025;DHT22;22890;51.820;8.682;2024-02-21T18:34:05;10.10;99.90
11025;DHT22;22890;51.820;8.682;2024-02-21T18:36:32;10.10;99.90
11025;DHT22;22890;51.820;8.682;2024-02-21T18:38:59;10.20;99.90
11025;DHT22;22890;51.820;8.682;2024-02-21T18:41:25;10.20;99.90
11025;DHT22;22890;51.820;8.682;2024-02-21T18:43:54;10.10;99.90
11025;DHT22;22890;51.820;8.682;2024-02-21T18:46:21;10.20;99.90
11025;DHT22;22890;51.820;8.682;2024-02-21T18:48:48;10.10;99.90
11025;DHT22;22890;51.820;8.682;2024-02-21T18:51:15;11.40;99.90
11025;DHT22;22890;51.820;8.682;2024-02-21T18:53:42;10.10;99.90
11025;DHT22;22890;51.820;8.682;2024-02-21T18:56:09;10.10;99.90
11025;DHT22;22890;51.820;8.682;2024-02-21T18:58:36;10.10;99.90
11025;DHT22;22890;51.820;8.682;2024-02-21T19:01:03;10.10;99.90
11025;DHT22;22890;51.820;8.682;2024-02-21T19:03:30;10.10;99.90
11025;DHT22;22890;51.820;8.682;2024-02-21T19:05:57;10.10;99.90
11025;DHT22;22890;51.820;8.682;2024-02-21T19:08:24;10.20;99.90
11025;DHT22;22890;51.820;8.682;2024-02-21T19:10:50;10.10;99.90
11025;DHT22;22890;51.820;8.682;2024-02-21T19:13:17;10.10;99.90
11025;DHT22;22890;51.820;8.682;2024-02-21T19:15:46;10.00;99.90
11025;DHT22;22890;51.820;8.682;2024-02-21T19:18:13;10.00;99.90
11025;DHT22;22890;51.820;8.682;2024-02-21T19:20:40;9.90;99.90
11025;DHT22;22890;51.820;8.682;2024-02-21T19:23:07;9.90;99.90
11025;DHT22;22890;51.820;8.682;2024-02-21T19:25:35;9.80;99.90
11025;DHT22;22890;51.820;8.682;2024-02-21T19:28:02;9.80;99.90
11025;DHT22;22890;51.820;8.682;2024-02-21T19:30:29;9.80;99.90
11025;DHT22;22890;51.820;8.682;2024-02-21T19:32:56;9.70;99.90
11025;DHT22;22890;51.820;8.682;2024-02-21T19:35:23;9.70;99.90
11025;DHT22;22890;51.820;8.682;2024-02-21T19:37:50;9.90;99.90
11025;DHT22;22890;51.820;8.682;2024-02-21T19:40:17;8.90;99.90
11025;DHT22;22890;51.820;8.682;2024-02-21T19:42:44;9.60;99.90
11025;DHT22;22890;51.820;8.682;2024-02-21T19:45:11;9.60;99.90
11025;DHT22;22890;51.820;8.682;2024-02-21T19:47:38;9.50;99.90
11025;DHT22;22890;51.820;8.682;2024-02-21T19:50:05;9.40;99.90
11025;DHT22;22890;51.820;8.682;2024-02-21T19:52:32;9.30;99.90
11025;DHT22;22890;51.820;8.682;2024-02-21T19:54:58;9.30;99.90
11025;DHT22;22890;51.820;8.682;2024-02-21T19:57:26;9.30;99.90
11025;DHT22;22890;51.820;8.682;2024-02-21T19:59:52;9.30;99.90
11025;DHT22;22890;51.820;8.682;2024-02-21T20:02:21;9.20;99.90
11025;DHT22;22890;51.820;8.682;2024-02-21T20:04:50;8.00;99.90
11025;DHT22;22890;51.820;8.682;2024-02-21T20:07:17;9.20;99.90
11025;DHT22;22890;51.820;8.682;2024-02-21T20:09:46;9.10;99.90
11025;DHT22;22890;51.820;8.682;2024-02-21T20:12:14;9.10;99.90
11025;DHT22;22890;51.820;8.682;2024-02-21T20:14:43;9.00;99.90
11025;DHT22;22890;51.820;8.682;2024-02-21T20:17:10;8.90;99.90
11025;DHT22;22890;51.820;8.682;2024-02-21T20:19:38;9.10;99.90
11025;DHT22;22890;51.820;8.682;2024-02-21T20:22:05;9.10;99.90
11025;DHT22;22890;51.820;8.682;2024-02-21T20:24:32;11.70;99.90
11025;DHT22;22890;51.820;8.682;2024-02-21T20:27:06;9.10;99.90
11025;DHT22;22890;51.820;8.682;2024-02-21T20:29:33;9.10;99.90
11025;DHT22;22890;51.820;8.682;2024-02-21T20:32:00;9.00;99.90
11025;DHT22;22890;51.820;8.682;2024-02-21T20:34:28;9.00;99.90
11025;DHT22;22890;51.820;8.682;2024-02-21T20:36:57;8.90;99.90
11025;DHT22;22890;51.820;8.682;2024-02-21T20:39:25;10.20;99.90
11025;DHT22;22890;51.820;8.682;2024-02-21T20:41:54;8.90;99.90
11025;DHT22;22890;51.820;8.682;2024-02-21T20:44:23;9.00;99.90
11025;DHT22;22890;51.820;8.682;2024-02-21T20:46:54;8.60;99.90
11025;DHT22;22890;51.820;8.682;2024-02-21T20:49:21;9.00;99.90
11025;DHT22;22890;51.820;8.682;2024-02-21T20:51:48;9.10;99.90
11025;DHT22;22890;51.820;8.682;2024-02-21T20:54:15;10.80;99.90
11025;DHT22;22890;51.820;8.682;2024-02-21T20:56:41;9.10;99.90
11025;DHT22;22890;51.820;8.682;2024-02-21T20:59:08;9.10;99.90
11025;DHT22;22890;51.820;8.682;2024-02-21T21:01:35;9.10;99.90
11025;DHT22;22890;51.820;8.682;2024-02-21T21:04:10;9.10;99.90
11025;DHT22;22890;51.820;8.682;2024-02-21T21:06:37;9.10;99.90
11025;DHT22;22890;51.820;8.682;2024-02-21T21:09:04;9.10;99.90
11025;DHT22;22890;51.820;8.682;2024-02-21T21:11:30;9.10;99.90
11025;DHT22;22890;51.820;8.682;2024-02-21T21:14:12;9.00;99.90
11025;DHT22;22890;51.820;8.682;2024-02-21T21:16:39;8.90;99.90
11025;DHT22;22890;51.820;8.682;2024-02-21T21:19:06;9.10;99.90
11025;DHT22;22890;51.820;8.682;2024-02-21T21:21:33;9.00;99.90
11025;DHT22;22890;51.820;8.682;2024-02-21T21:24:00;9.10;99.90
11025;DHT22;22890;51.820;8.682;2024-02-21T21:26:27;9.10;99.90
11025;DHT22;22890;51.820;8.682;2024-02-21T21:28:53;9.10;99.90
11025;DHT22;22890;51.820;8.682;2024-02-21T21:31:26;9.10;99.90
11025;DHT22;22890;51.820;8.682;2024-02-21T21:33:53;9.10;99.90
11025;DHT22;22890;51.820;8.682;2024-02-21T21:36:20;9.00;99.90
11025;DHT22;22890;51.820;8.682;2024-02-21T21:38:47;9.10;99.90
11025;DHT22;22890;51.820;8.682;2024-02-21T21:41:15;9.10;99.90
11025;DHT22;22890;51.820;8.682;2024-02-21T21:46:13;9.10;99.90
11025;DHT22;22890;51.820;8.682;2024-02-21T21:48:42;9.20;99.90
11025;DHT22;22890;51.820;8.682;2024-02-21T21:51:09;9.60;99.90
11025;DHT22;22890;51.820;8.682;2024-02-21T21:53:36;9.10;99.90
11025;DHT22;22890;51.820;8.682;2024-02-21T21:58:32;9.30;99.90
11025;DHT22;22890;51.820;8.682;2024-02-21T22:00:59;9.30;99.90
11025;DHT22;22890;51.820;8.682;2024-02-21T22:03:26;9.20;99.90
11025;DHT22;22890;51.820;8.682;2024-02-21T22:05:54;11.50;99.90
11025;DHT22;22890;51.820;8.682;2024-02-21T22:08:21;12.30;99.90
11025;DHT22;22890;51.820;8.682;2024-02-21T22:10:48;9.30;99.90
11025;DHT22;22890;51.820;8.682;2024-02-21T22:13:17;9.30;99.90
11025;DHT22;22890;51.820;8.682;2024-02-21T22:15:45;11.30;99.90
11025;DHT22;22890;51.820;8.682;2024-02-21T22:18:13;9.30;99.90
11025;DHT22;22890;51.820;8.682;2024-02-21T22:20:40;9.90;99.90
11025;DHT22;22890;51.820;8.682;2024-02-21T22:23:07;9.40;99.90
11025;DHT22;22890;51.820;8.682;2024-02-21T22:25:36;9.30;99.90
11025;DHT22;22890;51.820;8.682;2024-02-21T22:28:07;9.30;99.90
11025;DHT22;22890;51.820;8.682;2024-02-21T22:30:34;9.20;99.90
11025;DHT22;22890;51.820;8.682;2024-02-21T22:33:01;9.30;99.90
11025;DHT22;22890;51.820;8.682;2024-02-21T22:35:29;9.30;99.90
11025;DHT22;22890;51.820;8.682;2024-02-21T22:37:55;9.30;99.90
11025;DHT22;22890;51.820;8.682;2024-02-21T22:40:22;9.30;99.90
11025;DHT22;22890;51.820;8.682;2024-02-21T22:42:49;8.80;99.90
11025;DHT22;22890;51.820;8.682;2024-02-21T22:45:16;9.10;99.90
11025;DHT22;22890;51.820;8.682;2024-02-21T22:47:45;9.20;99.90
11025;DHT22;22890;51.820;8.682;2024-02-21T22:50:13;9.10;99.90
11025;DHT22;22890;51.820;8.682;2024-02-21T22:52:40;9.10;99.90
11025;DHT22;22890;51.820;8.682;2024-02-21T22:55:07;10.00;99.90
11025;DHT22;22890;51.820;8.682;2024-02-21T22:57:36;9.10;99.90
11025;DHT22;22890;51.820;8.682;2024-02-21T23:00:08;9.60;99.90
11025;DHT22;22890;51.820;8.682;2024-02-21T23:02:36;9.00;99.90
11025;DHT22;22890;51.820;8.682;2024-02-21T23:05:03;9.00;99.90
11025;DHT22;22890;51.820;8.682;2024-02-21T23:07:33;9.00;99.90
11025;DHT22;22890;51.820;8.682;2024-02-21T23:10:00;9.00;99.90
11025;DHT22;22890;51.820;8.682;2024-02-21T23:12:27;8.90;99.90
11025;DHT22;22890;51.820;8.682;2024-02-21T23:14:54;6.70;99.90
11025;DHT22;22890;51.820;8.682;2024-02-21T23:17:20;9.00;99.90
11025;DHT22;22890;51.820;8.682;2024-02-21T23:19:47;9.00;99.90
11025;DHT22;22890;51.820;8.682;2024-02-21T23:22:14;8.90;99.90
11025;DHT22;22890;51.820;8.682;2024-02-21T23:24:42;9.90;99.90
11025;DHT22;22890;51.820;8.682;2024-02-21T23:27:09;8.90;99.90
11025;DHT22;22890;51.820;8.682;2024-02-21T23:29:36;8.80;99.90
11025;DHT22;22890;51.820;8.682;2024-02-21T23:32:03;8.90;99.90
11025;DHT22;22890;51.820;8.682;2024-02-21T23:34:31;8.80;99.90
11025;DHT22;22890;51.820;8.682;2024-02-21T23:36:57;8.80;99.90
11025;DHT22;22890;51.820;8.682;2024-02-21T23:39:24;8.80;99.90
11025;DHT22;22890;51.820;8.682;2024-02-21T23:41:51;8.80;99.90
11025;DHT22;22890;51.820;8.682;2024-02-21T23:44:18;8.90;99.90
11025;DHT22;22890;51.820;8.682;2024-02-21T23:46:45;10.00;99.90
11025;DHT22;22890;51.820;8.682;2024-02-21T23:49:12;8.90;99.90
11025;DHT22;22890;51.820;8.682;2024-02-21T23:51:39;8.90;99.90
11025;DHT22;22890;51.820;8.682;2024-02-21T23:54:05;8.90;99.90
11025;DHT22;22890;51.820;8.682;2024-02-21T23:56:32;8.80;99.90
11025;DHT22;22890;51.820;8.682;2024-02-21T23:58:59;8.80;99.90
